createdAt,value
2019-02-09T00:01:59.118Z,70.78
2019-02-09T00:04:29.652Z,70.78
2019-02-09T00:07:00.220Z,70.92
2019-02-09T00:09:33.549Z,71.03
2019-02-09T00:12:04.725Z,70.84
2019-02-09T00:14:35.300Z,70.31
2019-02-09T00:17:06.099Z,70.36
2019-02-09T00:19:36.792Z,69.89
2019-02-09T00:22:07.265Z,70.26
2019-02-09T00:24:37.555Z,69.87
2019-02-09T00:27:08.120Z,70.09
2019-02-09T00:29:45.909Z,69.74
2019-02-09T00:32:11.019Z,69.74
2019-02-09T00:34:41.703Z,69.98
2019-02-09T00:37:12.303Z,69.81
2019-02-09T00:39:42.811Z,69.41
2019-02-09T00:42:13.436Z,69.25
2019-02-09T00:44:44.169Z,69.36
2019-02-09T00:47:15.050Z,68.64
2019-02-09T00:49:45.747Z,68.65
2019-02-09T00:52:16.118Z,68.72
2019-02-09T00:54:46.705Z,68.71
2019-02-09T00:57:17.349Z,69.12
2019-02-09T00:59:54.090Z,68.54
2019-02-09T01:02:20.234Z,68.24
2019-02-09T01:04:50.776Z,68.02
2019-02-09T01:07:21.404Z,67.99
2019-02-09T01:09:52.037Z,67.72
2019-02-09T01:12:23.564Z,67.02
2019-02-09T01:14:54.102Z,66.93
2019-02-09T01:17:24.717Z,67.34
2019-02-09T01:19:55.248Z,67.56
2019-02-09T01:22:25.946Z,67.48
2019-02-09T01:24:56.514Z,67.48
2019-02-09T01:27:27.495Z,67.27
2019-02-09T01:30:02.576Z,67.31
2019-02-09T01:32:30.485Z,67.12
2019-02-09T01:35:01.087Z,66.85
2019-02-09T01:37:31.637Z,66.85
2019-02-09T01:40:02.395Z,67.19
2019-02-09T01:42:33.211Z,67.32
2019-02-09T01:45:03.956Z,67.23
2019-02-09T01:47:34.703Z,67.26
2019-02-09T01:50:14.611Z,67.20
2019-02-09T01:52:45.162Z,67.36
2019-02-09T01:55:15.408Z,67.43
2019-02-09T01:57:46.020Z,67.22
2019-02-09T02:00:21.661Z,67.52
2019-02-09T02:02:52.412Z,67.12
2019-02-09T02:05:24.674Z,66.77
2019-02-09T02:07:55.418Z,66.78
2019-02-09T02:10:31.466Z,66.94
2019-02-09T02:13:02.276Z,66.95
2019-02-09T02:15:32.452Z,66.90
2019-02-09T02:18:03.640Z,66.74
2019-02-09T02:20:34.288Z,66.44
2019-02-09T02:23:05.241Z,66.60
2019-02-09T02:25:35.519Z,66.10
2019-02-09T02:28:06.081Z,65.55
2019-02-09T02:30:38.356Z,65.37
2019-02-09T02:33:09.095Z,65.76
2019-02-09T02:35:39.817Z,65.92
2019-02-09T02:38:10.461Z,65.74
2019-02-09T02:40:41.187Z,66.22
2019-02-09T02:43:11.814Z,65.69
2019-02-09T02:45:42.074Z,65.56
2019-02-09T02:48:12.670Z,65.36
2019-02-09T02:50:48.322Z,65.37
2019-02-09T02:53:20.493Z,65.67
2019-02-09T02:55:51.020Z,65.75
2019-02-09T02:58:21.541Z,65.64
2019-02-09T03:00:52.196Z,65.71
2019-02-09T03:03:22.821Z,65.51
2019-02-09T03:05:53.436Z,65.63
2019-02-09T03:08:24.081Z,65.54
2019-02-09T03:10:54.711Z,65.63
2019-02-09T03:13:25.434Z,65.23
2019-02-09T03:15:56.074Z,65.42
2019-02-09T03:18:26.695Z,65.25
2019-02-09T03:20:57.324Z,65.26
2019-02-09T03:23:27.866Z,65.16
2019-02-09T03:25:58.503Z,65.01
2019-02-09T03:28:29.131Z,64.71
2019-02-09T03:30:59.756Z,64.40
2019-02-09T03:33:30.388Z,64.80
2019-02-09T03:36:01.011Z,64.17
2019-02-09T03:38:31.646Z,63.99
2019-02-09T03:41:02.482Z,63.53
2019-02-09T03:43:33.007Z,63.19
2019-02-09T03:46:03.748Z,63.33
2019-02-09T03:48:33.972Z,62.56
2019-02-09T03:51:04.600Z,62.44
2019-02-09T03:53:35.247Z,62.57
2019-02-09T03:56:05.868Z,62.07
2019-02-09T03:58:36.395Z,62.18
2019-02-09T04:01:06.677Z,62.06
2019-02-09T04:03:37.245Z,62.42
2019-02-09T04:06:07.894Z,61.90
2019-02-09T04:08:38.549Z,61.74
2019-02-09T04:11:09.194Z,60.89
2019-02-09T04:13:39.454Z,61.57
2019-02-09T04:16:09.990Z,61.88
2019-02-09T04:18:40.562Z,62.02
2019-02-09T04:21:11.078Z,61.61
2019-02-09T04:23:41.699Z,60.89
2019-02-09T04:26:12.353Z,60.65
2019-02-09T04:28:42.970Z,61.05
2019-02-09T04:31:13.599Z,61.08
2019-02-09T04:33:44.315Z,60.75
2019-02-09T04:36:14.843Z,61.31
2019-02-09T04:38:45.483Z,61.12
2019-02-09T04:41:16.001Z,60.57
2019-02-09T04:43:46.543Z,60.99
2019-02-09T04:46:16.725Z,60.12
2019-02-09T04:48:47.301Z,60.33
2019-02-09T04:51:17.546Z,60.10
2019-02-09T04:53:48.167Z,60.84
2019-02-09T04:56:18.800Z,60.18
2019-02-09T04:58:49.444Z,60.51
2019-02-09T05:01:20.269Z,60.52
2019-02-09T05:03:50.989Z,60.12
2019-02-09T05:06:21.617Z,60.41
2019-02-09T05:08:52.255Z,59.96
2019-02-09T05:11:22.488Z,59.79
2019-02-09T05:13:53.015Z,59.78
2019-02-09T05:16:23.631Z,60.09
2019-02-09T05:18:54.186Z,59.95
2019-02-09T05:21:24.948Z,60.03
2019-02-09T05:23:55.532Z,59.76
2019-02-09T05:26:26.075Z,60.08
2019-02-09T05:28:56.353Z,59.76
2019-02-09T05:31:26.907Z,59.76
2019-02-09T05:33:57.575Z,59.30
2019-02-09T05:36:28.175Z,60.47
2019-02-09T05:38:58.910Z,60.47
2019-02-09T05:41:29.526Z,60.58
2019-02-09T05:44:00.109Z,60.05
2019-02-09T05:46:30.816Z,60.31
2019-02-09T05:49:01.473Z,61.28
2019-02-09T05:51:32.193Z,60.84
2019-02-09T05:54:03.025Z,61.80
2019-02-09T05:56:33.637Z,62.94
2019-02-09T05:59:04.176Z,64.11
2019-02-09T06:01:34.828Z,63.57
2019-02-09T06:04:05.585Z,64.78
2019-02-09T06:06:36.164Z,64.12
2019-02-09T06:09:07.506Z,63.72
2019-02-09T06:11:37.990Z,63.65
2019-02-09T06:14:08.573Z,63.29
2019-02-09T06:16:38.853Z,63.27
2019-02-09T06:19:09.276Z,64.30
2019-02-09T06:21:39.863Z,66.01
2019-02-09T06:24:13.022Z,67.08
2019-02-09T06:26:43.725Z,68.92
2019-02-09T06:29:14.530Z,69.06
2019-02-09T06:31:45.055Z,69.74
2019-02-09T06:34:15.700Z,69.60
2019-02-09T06:36:46.370Z,70.91
2019-02-09T06:39:17.209Z,71.52
2019-02-09T06:41:47.790Z,71.03
2019-02-09T06:44:18.124Z,71.29
2019-02-09T06:46:48.632Z,71.22
2019-02-09T06:49:19.376Z,71.52
2019-02-09T06:51:49.999Z,71.94
2019-02-09T06:54:20.642Z,71.18
2019-02-09T06:56:50.893Z,71.41
2019-02-09T06:59:21.488Z,71.59
2019-02-09T07:01:52.526Z,71.09
2019-02-09T07:04:23.266Z,71.23
2019-02-09T07:06:54.007Z,70.98
2019-02-09T07:09:24.502Z,71.57
2019-02-09T07:11:55.053Z,70.64
2019-02-09T07:14:25.770Z,71.18
2019-02-09T07:16:56.336Z,71.46
2019-02-09T07:19:26.993Z,71.97
2019-02-09T07:21:59.979Z,72.00
2019-02-09T07:24:29.881Z,71.70
2019-02-09T07:27:00.707Z,72.44
2019-02-09T07:29:31.025Z,72.87
2019-02-09T07:32:01.546Z,73.62
2019-02-09T07:34:31.938Z,73.63
2019-02-09T07:37:04.135Z,75.08
2019-02-09T07:39:34.660Z,75.04
2019-02-09T07:42:05.209Z,74.96
2019-02-09T07:44:35.962Z,76.78
2019-02-09T07:47:06.675Z,77.52
2019-02-09T07:49:37.393Z,78.98
2019-02-09T07:52:07.659Z,80.30
2019-02-09T07:54:38.379Z,78.18
2019-02-09T07:57:09.130Z,75.71
2019-02-09T07:59:39.875Z,76.05
2019-02-09T08:02:10.634Z,75.88
2019-02-09T08:04:41.375Z,76.64
2019-02-09T08:07:14.698Z,76.59
2019-02-09T08:09:45.724Z,78.01
2019-02-09T08:12:16.403Z,78.20
2019-02-09T08:14:50.151Z,78.93
2019-02-09T08:17:20.772Z,80.56
2019-02-09T08:19:55.768Z,80.76
2019-02-09T08:22:29.615Z,80.65
2019-02-09T08:24:59.963Z,79.94
2019-02-09T08:27:30.761Z,80.12
2019-02-09T08:30:05.197Z,79.26
2019-02-09T08:32:35.878Z,79.79
2019-02-09T08:35:07.093Z,78.84
2019-02-09T08:37:37.746Z,78.59
2019-02-09T08:40:11.041Z,79.57
2019-02-09T08:42:41.397Z,78.70
2019-02-09T08:45:22.175Z,78.72
2019-02-09T08:47:52.766Z,78.55
2019-02-09T08:50:35.111Z,78.19
2019-02-09T08:53:05.810Z,78.75
2019-02-09T08:55:36.459Z,78.24
2019-02-09T08:58:07.303Z,78.07
2019-02-09T09:00:38.395Z,78.22
2019-02-09T09:03:11.754Z,77.55
2019-02-09T09:05:46.180Z,77.35
2019-02-09T09:08:17.357Z,77.14
2019-02-09T09:10:48.035Z,77.15
2019-02-09T09:13:18.379Z,77.37
2019-02-09T09:15:52.259Z,76.86
2019-02-09T09:18:22.999Z,77.02
2019-02-09T09:20:56.589Z,76.29
2019-02-09T09:23:27.164Z,76.93
2019-02-09T09:26:00.811Z,76.18
2019-02-09T09:28:31.652Z,75.96
2019-02-09T09:31:02.418Z,75.14
2019-02-09T09:33:33.123Z,74.63
2019-02-09T09:36:03.862Z,74.48
2019-02-09T09:38:34.493Z,74.17
2019-02-09T09:41:05.325Z,73.71
2019-02-09T09:43:37.056Z,73.21
2019-02-09T09:46:09.550Z,72.98
2019-02-09T09:48:43.253Z,72.74
2019-02-09T09:51:13.891Z,72.31
2019-02-09T09:53:45.161Z,72.15
2019-02-09T09:56:15.891Z,71.73
2019-02-09T09:58:46.748Z,71.82
2019-02-09T10:01:17.466Z,71.02
2019-02-09T10:03:47.691Z,71.35
2019-02-09T10:06:21.171Z,71.22
2019-02-09T10:08:51.897Z,71.28
2019-02-09T10:11:23.114Z,71.03
2019-02-09T10:13:53.734Z,70.92
2019-02-09T10:16:24.403Z,70.76
2019-02-09T10:18:55.049Z,70.39
2019-02-09T10:21:25.767Z,69.96
2019-02-09T10:23:56.742Z,69.43
2019-02-09T10:26:27.119Z,69.68
2019-02-09T10:28:57.777Z,69.44
2019-02-09T10:31:31.654Z,69.39
2019-02-09T10:34:02.421Z,69.15
2019-02-09T10:36:33.135Z,68.52
2019-02-09T10:39:05.399Z,72.72
2019-02-09T10:41:37.676Z,65.62
2019-02-09T10:44:08.460Z,66.21
2019-02-09T10:46:39.166Z,66.65
2019-02-09T10:49:09.905Z,66.36
2019-02-09T10:51:40.615Z,66.37
2019-02-09T10:54:11.229Z,66.29
2019-02-09T10:56:41.460Z,66.23
2019-02-09T10:59:12.098Z,65.50
2019-02-09T11:01:42.643Z,65.21
2019-02-09T11:04:13.264Z,64.75
2019-02-09T11:06:43.568Z,63.92
2019-02-09T11:09:20.263Z,63.20
2019-02-09T11:11:51.006Z,63.09
2019-02-09T11:14:21.695Z,63.09
2019-02-09T11:16:53.398Z,62.49
2019-02-09T11:19:25.738Z,62.04
2019-02-09T11:21:56.631Z,62.07
2019-02-09T11:24:27.245Z,61.59
2019-02-09T11:26:57.962Z,61.90
2019-02-09T11:29:28.482Z,61.87
2019-02-09T11:31:59.126Z,61.21
2019-02-09T11:34:29.645Z,61.20
2019-02-09T11:37:00.437Z,61.38
2019-02-09T11:39:31.023Z,61.14
2019-02-09T11:42:01.746Z,61.62
2019-02-09T11:44:32.382Z,60.74
2019-02-09T11:47:02.703Z,60.25
2019-02-09T11:49:34.972Z,60.25
2019-02-09T11:52:05.787Z,59.46
2019-02-09T11:54:36.337Z,60.25
2019-02-09T11:57:06.970Z,59.40
2019-02-09T11:59:37.831Z,59.84
2019-02-09T12:02:08.549Z,59.96
2019-02-09T12:04:41.461Z,60.06
2019-02-09T12:07:12.194Z,59.79
2019-02-09T12:09:42.810Z,59.65
2019-02-09T12:12:13.527Z,60.14
2019-02-09T12:14:44.059Z,60.10
2019-02-09T12:17:16.030Z,60.04
2019-02-09T12:19:46.655Z,59.51
2019-02-09T12:22:17.312Z,59.36
2019-02-09T12:24:47.967Z,59.91
2019-02-09T12:27:18.617Z,60.88
2019-02-09T12:29:49.173Z,60.77
2019-02-09T12:32:22.031Z,61.60
2019-02-09T12:34:52.708Z,61.40
2019-02-09T12:37:23.214Z,61.56
2019-02-09T12:39:54.169Z,61.70
2019-02-09T12:42:24.535Z,61.16
2019-02-09T12:44:58.701Z,60.26
2019-02-09T12:47:29.346Z,60.09
2019-02-09T12:49:59.977Z,58.96
2019-02-09T12:52:30.951Z,59.32
2019-02-09T12:55:01.573Z,58.92
2019-02-09T12:57:32.270Z,58.04
2019-02-09T13:00:02.984Z,57.79
2019-02-09T13:02:33.817Z,57.99
2019-02-09T13:05:05.114Z,57.68
2019-02-09T13:07:35.881Z,57.22
2019-02-09T13:10:14.456Z,57.60
2019-02-09T13:12:45.123Z,58.34
2019-02-09T13:15:27.954Z,58.38
2019-02-09T13:17:58.545Z,59.10
2019-02-09T13:20:30.791Z,59.19
2019-02-09T13:23:05.127Z,59.20
2019-02-09T13:25:35.972Z,59.75
2019-02-09T13:28:06.904Z,59.68
2019-02-09T13:30:39.688Z,59.62
2019-02-09T13:33:10.431Z,59.79
2019-02-09T13:35:44.489Z,59.98
2019-02-09T13:38:15.070Z,60.24
2019-02-09T13:40:45.844Z,60.37
2019-02-09T13:43:16.205Z,60.13
2019-02-09T13:45:49.398Z,60.19
2019-02-09T13:48:21.235Z,59.96
2019-02-09T13:50:51.460Z,59.57
2019-02-09T13:53:22.149Z,59.21
2019-02-09T13:55:52.781Z,59.91
2019-02-09T13:58:34.501Z,58.82
2019-02-09T14:01:11.568Z,58.34
2019-02-09T14:03:46.868Z,58.46
2019-02-09T14:06:17.621Z,57.66
2019-02-09T14:08:50.755Z,57.25
2019-02-09T14:11:21.328Z,57.24
2019-02-09T14:13:52.060Z,57.19
2019-02-09T14:16:22.621Z,57.50
2019-02-09T14:18:53.426Z,57.11
2019-02-09T14:21:24.198Z,56.82
2019-02-09T14:24:06.622Z,55.78
2019-02-09T14:26:33.676Z,54.99
2019-02-09T14:29:07.311Z,53.69
2019-02-09T14:31:39.497Z,53.83
2019-02-09T14:34:11.659Z,53.93
2019-02-09T14:36:43.773Z,54.06
2019-02-09T14:39:15.972Z,53.69
2019-02-09T14:41:46.564Z,53.80
2019-02-09T14:44:18.454Z,53.56
2019-02-09T14:46:48.795Z,53.51
2019-02-09T14:49:21.013Z,53.52
2019-02-09T14:51:54.530Z,53.63
2019-02-09T14:54:28.220Z,53.16
2019-02-09T14:57:02.077Z,53.31
2019-02-09T14:59:32.887Z,53.39
2019-02-09T15:02:03.658Z,53.67
2019-02-09T15:04:36.027Z,53.82
2019-02-09T15:07:08.314Z,54.00
2019-02-09T15:09:38.656Z,54.14
2019-02-09T15:12:09.153Z,53.90
2019-02-09T15:14:39.930Z,53.94
2019-02-09T15:17:10.507Z,53.94
2019-02-09T15:19:44.115Z,53.46
2019-02-09T15:22:14.656Z,53.46
2019-02-09T15:24:45.278Z,53.98
2019-02-09T15:27:15.853Z,53.75
2019-02-09T15:29:50.283Z,53.47
2019-02-09T15:32:20.587Z,53.92
2019-02-09T15:34:54.197Z,53.80
2019-02-09T15:37:25.227Z,53.95
2019-02-09T15:39:57.753Z,54.94
2019-02-09T15:42:28.695Z,54.11
2019-02-09T15:44:59.512Z,54.40
2019-02-09T15:47:30.091Z,53.80
2019-02-09T15:50:00.740Z,53.65
2019-02-09T15:52:37.455Z,53.77
2019-02-09T15:55:11.937Z,54.02
2019-02-09T15:57:43.067Z,54.11
2019-02-09T16:00:25.502Z,53.83
2019-02-09T16:02:59.168Z,54.09
2019-02-09T16:05:29.719Z,53.88
2019-02-09T16:08:00.367Z,53.66
2019-02-09T16:10:32.646Z,53.42
2019-02-09T16:13:02.960Z,53.37
2019-02-09T16:15:33.867Z,53.66
2019-02-09T16:18:04.828Z,53.85
2019-02-09T16:20:36.837Z,53.73
2019-02-09T16:23:07.445Z,53.68
2019-02-09T16:25:38.089Z,53.83
2019-02-09T16:28:09.101Z,53.83
2019-02-09T16:30:40.449Z,54.48
2019-02-09T16:33:12.997Z,55.12
2019-02-09T16:35:45.675Z,55.72
2019-02-09T16:38:16.449Z,56.10
2019-02-09T16:40:47.664Z,55.98
2019-02-09T16:43:19.000Z,55.80
2019-02-09T16:45:50.169Z,55.58
2019-02-09T16:48:21.222Z,55.61
2019-02-09T16:50:52.302Z,55.47
2019-02-09T16:53:23.411Z,55.89
2019-02-09T16:55:54.752Z,55.43
2019-02-09T16:58:25.489Z,55.34
2019-02-09T17:00:56.428Z,55.61
2019-02-09T17:03:28.787Z,55.88
2019-02-09T17:05:59.415Z,55.73
2019-02-09T17:08:30.396Z,56.11
2019-02-09T17:11:01.100Z,55.77
2019-02-09T17:13:34.538Z,56.03
2019-02-09T17:16:05.707Z,55.98
2019-02-09T17:18:38.049Z,56.35
2019-02-09T17:21:09.271Z,57.16
2019-02-09T17:23:41.859Z,57.30
2019-02-09T17:26:17.783Z,57.66
2019-02-09T17:28:50.474Z,57.68
2019-02-09T17:31:24.609Z,57.76
2019-02-09T17:33:56.673Z,57.85
2019-02-09T17:36:27.778Z,58.05
2019-02-09T17:39:05.062Z,58.37
2019-02-09T17:41:36.409Z,58.53
2019-02-09T17:44:09.700Z,58.57
2019-02-09T17:46:40.678Z,61.85
2019-02-09T17:49:11.890Z,65.34
2019-02-09T17:51:42.816Z,68.49
2019-02-09T17:54:14.027Z,70.50
2019-02-09T17:56:45.382Z,70.32
2019-02-09T17:59:16.695Z,70.66
2019-02-09T18:01:48.070Z,71.06
2019-02-09T18:04:18.871Z,71.57
2019-02-09T18:06:50.169Z,71.38
2019-02-09T18:09:21.200Z,71.85
2019-02-09T18:11:52.683Z,71.00
2019-02-09T18:14:24.099Z,70.96
2019-02-09T18:16:55.212Z,69.40
2019-02-09T18:19:26.396Z,68.80
2019-02-09T18:21:57.599Z,68.85
2019-02-09T18:24:28.244Z,68.45
2019-02-09T18:26:59.591Z,68.12
2019-02-09T18:29:30.783Z,68.01
2019-02-09T18:32:02.663Z,68.02
2019-02-09T18:34:33.770Z,67.91
2019-02-09T18:37:05.817Z,68.50
2019-02-09T18:39:36.783Z,68.63
2019-02-09T18:42:07.843Z,68.32
2019-02-09T18:44:38.877Z,68.00
2019-02-09T18:47:10.141Z,68.23
2019-02-09T18:49:41.139Z,68.08
2019-02-09T18:52:12.362Z,68.25
2019-02-09T18:54:43.520Z,67.99
2019-02-09T18:57:14.102Z,68.43
2019-02-09T18:59:44.735Z,67.50
2019-02-09T19:02:15.753Z,66.86
2019-02-09T19:04:47.919Z,67.20
2019-02-09T19:07:18.958Z,67.15
2019-02-09T19:09:50.296Z,67.45
2019-02-09T19:12:21.597Z,68.79
2019-02-09T19:14:54.055Z,68.88
2019-02-09T19:17:24.812Z,67.79
2019-02-09T19:19:55.856Z,67.82
2019-02-09T19:22:33.141Z,68.19
2019-02-09T19:25:04.258Z,67.89
2019-02-09T19:27:35.156Z,67.68
2019-02-09T19:30:11.903Z,67.72
2019-02-09T19:32:42.272Z,67.76
2019-02-09T19:35:14.592Z,67.60
2019-02-09T19:37:48.045Z,67.81
2019-02-09T19:40:25.902Z,68.62
2019-02-09T19:42:56.198Z,67.65
2019-02-09T19:45:37.290Z,68.33
2019-02-09T19:48:08.750Z,67.54
2019-02-09T19:50:39.910Z,67.93
2019-02-09T19:53:10.934Z,68.12
2019-02-09T19:55:42.625Z,67.78
2019-02-09T19:58:14.565Z,67.68
2019-02-09T20:00:48.902Z,67.84
2019-02-09T20:03:20.005Z,67.59
2019-02-09T20:05:51.285Z,67.03
2019-02-09T20:08:24.608Z,66.84
2019-02-09T20:10:55.403Z,66.94
2019-02-09T20:13:26.659Z,66.78
2019-02-09T20:15:57.700Z,66.93
2019-02-09T20:18:29.072Z,66.66
2019-02-09T20:20:59.902Z,66.71
2019-02-09T20:23:31.332Z,66.49
2019-02-09T20:26:02.543Z,66.59
2019-02-09T20:28:33.836Z,66.53
2019-02-09T20:31:05.001Z,66.69
2019-02-09T20:33:36.280Z,66.64
2019-02-09T20:36:07.544Z,66.35
2019-02-09T20:38:41.851Z,66.38
2019-02-09T20:41:18.419Z,66.54
2019-02-09T20:43:51.294Z,66.47
2019-02-09T20:46:22.420Z,66.35
2019-02-09T20:48:53.631Z,66.89
2019-02-09T20:51:24.505Z,66.41
2019-02-09T20:53:55.646Z,66.66
2019-02-09T20:56:26.635Z,66.64
2019-02-09T20:58:58.812Z,66.38
2019-02-09T21:01:29.940Z,66.60
2019-02-09T21:04:01.310Z,67.07
2019-02-09T21:06:33.758Z,66.99
2019-02-09T21:09:07.654Z,66.85
2019-02-09T21:11:41.763Z,67.37
2019-02-09T21:14:13.459Z,67.32
2019-02-09T21:16:51.759Z,67.32
2019-02-09T21:19:21.347Z,67.70
2019-02-09T21:21:53.861Z,67.72
2019-02-09T21:24:29.314Z,67.50
2019-02-09T21:27:00.535Z,67.64
2019-02-09T21:29:31.950Z,67.63
2019-02-09T21:32:02.978Z,67.15
2019-02-09T21:34:34.738Z,67.33
2019-02-09T21:37:06.187Z,67.63
2019-02-09T21:39:38.383Z,67.43
2019-02-09T21:42:12.283Z,67.30
2019-02-09T21:44:44.845Z,67.23
2019-02-09T21:47:16.212Z,67.06
2019-02-09T21:49:47.188Z,67.13
2019-02-09T21:52:18.490Z,67.07
2019-02-09T21:54:49.770Z,67.13
2019-02-09T21:57:21.137Z,66.64
2019-02-09T21:59:52.514Z,66.61
2019-02-09T22:02:23.836Z,66.97
2019-02-09T22:04:55.051Z,66.54
2019-02-09T22:07:26.388Z,66.52
2019-02-09T22:09:57.160Z,66.46
2019-02-09T22:12:28.057Z,66.68
2019-02-09T22:14:59.770Z,66.46
2019-02-09T22:17:32.755Z,66.51
2019-02-09T22:20:07.156Z,66.46
2019-02-09T22:22:38.780Z,66.28
2019-02-09T22:25:13.302Z,66.56
2019-02-09T22:27:45.021Z,67.12
2019-02-09T22:30:21.640Z,66.82
2019-02-09T22:32:54.500Z,67.02
2019-02-09T22:35:25.049Z,66.65
2019-02-09T22:37:55.683Z,66.24
2019-02-09T22:40:31.602Z,66.25
2019-02-09T22:43:02.378Z,66.24
2019-02-09T22:45:32.963Z,66.05
2019-02-09T22:48:03.660Z,65.90
2019-02-09T22:50:39.533Z,66.07
2019-02-09T22:53:09.828Z,65.58
2019-02-09T22:55:40.674Z,66.46
2019-02-09T22:58:14.219Z,65.35
2019-02-09T23:00:58.425Z,65.46
2019-02-09T23:03:48.200Z,65.41
2019-02-09T23:06:34.090Z,64.86
2019-02-09T23:09:12.597Z,65.63
2019-02-09T23:11:43.124Z,65.31
2019-02-09T23:14:13.848Z,65.57
2019-02-09T23:16:44.384Z,64.75
2019-02-09T23:19:15.007Z,65.10
2019-02-09T23:21:47.347Z,64.92
2019-02-09T23:24:18.040Z,65.35
2019-02-09T23:26:51.724Z,65.37
2019-02-09T23:29:22.343Z,65.32
2019-02-09T23:31:52.985Z,65.22
2019-02-09T23:34:25.999Z,65.13
2019-02-09T23:36:56.614Z,65.69
2019-02-09T23:39:27.233Z,65.14
2019-02-09T23:41:57.477Z,64.82
2019-02-09T23:44:28.594Z,65.82
2019-02-09T23:47:00.354Z,65.74
2019-02-09T23:49:34.868Z,65.89
2019-02-09T23:52:05.526Z,66.13
2019-02-09T23:54:35.803Z,65.48
2019-02-09T23:57:06.704Z,66.18
2019-02-09T23:59:37.011Z,65.82
